VVDN/DAD METAR and TAF weather

Enter ICAO airport designator
Station Type Date Time Source
VVDN METAR 2020/09/22 17:00 UTC NOAA

VVDN 221700Z 00000KT 9999 FEW015 28/25 Q1010 NOSIG


Station Type Date Time Source
VVDN Decoded METAR 2020/09/22 17:00 UTC NOAA

Da Nang, Vietnam (VVDN) 16-02N 108-11E 7M
Sep 22, 2020 - 01:00 PM EDT / 2020.09.22 1700 UTC
Wind: Calm:0
Visibility: greater than 7 mile(s):0
Sky conditions: mostly clear
Temperature: 82 F (28 C)
Dew Point: 77 F (25 C)
Relative Humidity: 83%
Pressure (altimeter): 29.83 in. Hg (1010 hPa)
ob: VVDN 221700Z 00000KT 9999 FEW015 28/25 Q1010 NOSIG
cycle: 17

Station Type Date Time Source
VVDN TAF 2020/09/22 12:36 UTC NOAA

TAF VVDN 221100Z 2212/2312 23005KT 9999 FEW015
BECMG 2303/2304 08010KT

Example: see airport list